Time;durP1;ratioP1;P1;durP2;ratioP2;P2;SDS_P1;SDS_P2;PMS_P1;PMS_P2;Temp;Humidity;BMP_temperature;BMP_pressure;BME280_temperature;BME280_humidity;BME280_pressure;Samples;Min_cycle;Max_cycle;Signal;HPM_P1;HPM_P2
2021/12/23 00:01:58;;;;;;;14.40;11.05;;;5.00;72.00;;;;;;5078764;28;20715;-69
2021/12/23 00:04:24;;;;;;;15.45;10.90;;;5.10;72.70;;;;;;5090847;28;21002;-69
2021/12/23 00:06:50;;;;;;;14.47;11.67;;;5.10;73.00;;;;;;5072315;28;20181;-69
2021/12/23 00:09:16;;;;;;;14.23;11.17;;;5.20;73.00;;;;;;5068867;28;20185;-69
2021/12/23 00:11:41;;;;;;;14.27;11.00;;;5.30;73.00;;;;;;5072647;28;20169;-68
2021/12/23 00:14:09;;;;;;;15.07;11.20;;;5.30;72.40;;;;;;5072406;28;20434;-79
2021/12/23 00:16:47;;;;;;;15.63;11.70;;;5.10;72.30;;;;;;5072161;28;20290;-69
2021/12/23 00:24:38;;;;;;;16.60;12.43;;;4.80;71.50;;;;;;5072491;28;20161;-68
2021/12/23 00:27:04;;;;;;;16.60;11.75;;;4.80;71.90;;;;;;5071047;28;20633;-68
2021/12/23 00:29:30;;;;;;;19.27;12.68;;;4.80;70.90;;;;;;5070226;28;20178;-68
2021/12/23 00:31:56;;;;;;;14.97;11.30;;;4.80;71.80;;;;;;5071769;28;20235;-71
2021/12/23 00:34:22;;;;;;;14.10;11.13;;;4.90;71.60;;;;;;5068866;28;20177;-68
2021/12/23 00:36:48;;;;;;;18.43;12.30;;;4.80;71.30;;;;;;5071257;28;20430;-68
2021/12/23 00:39:15;;;;;;;14.07;10.60;;;4.80;71.50;;;;;;5071062;28;20230;-71
2021/12/23 00:41:43;;;;;;;12.75;10.45;;;4.60;71.90;;;;;;5068896;28;20189;-70
2021/12/23 00:44:09;;;;;;;13.98;11.35;;;4.60;72.60;;;;;;5069478;28;20264;-75
2021/12/23 00:46:34;;;;;;;16.20;11.90;;;4.50;72.80;;;;;;5069149;28;20405;-69
2021/12/23 00:49:00;;;;;;;18.43;12.60;;;4.40;73.60;;;;;;5066829;28;20184;-68
2021/12/23 00:51:26;;;;;;;17.30;12.03;;;4.30;74.30;;;;;;5066690;28;20460;-68
2021/12/23 00:53:54;;;;;;;13.73;11.97;;;4.60;74.40;;;;;;5067345;28;20930;-71
2021/12/23 00:56:20;;;;;;;16.17;11.98;;;4.70;74.20;;;;;;5067913;28;20205;-71
2021/12/23 00:58:45;;;;;;;15.87;11.70;;;4.80;73.70;;;;;;5068870;28;20177;-70
2021/12/23 01:01:11;;;;;;;17.33;12.37;;;4.90;73.60;;;;;;5068115;28;20398;-78
2021/12/23 01:03:37;;;;;;;14.77;11.43;;;4.90;72.90;;;;;;5068157;28;20176;-70
2021/12/23 01:06:03;;;;;;;19.10;12.95;;;4.90;73.00;;;;;;5066402;28;20548;-68
2021/12/23 01:08:29;;;;;;;15.52;12.18;;;5.10;73.10;;;;;;5068674;28;20308;-70
2021/12/23 01:10:57;;;;;;;15.00;11.60;;;5.20;72.90;;;;;;5070362;28;20669;-70
2021/12/23 01:13:29;;;;;;;14.77;11.93;;;5.20;73.20;;;;;;5066442;28;20192;-69
2021/12/23 01:16:07;;;;;;;14.13;11.35;;;5.20;72.20;;;;;;5069539;28;20198;-69
2021/12/23 01:18:38;;;;;;;15.50;12.23;;;5.20;72.20;;;;;;5067568;28;20393;-68
2021/12/23 01:21:14;;;;;;;16.05;12.25;;;5.40;72.10;;;;;;5070059;28;20199;-70
2021/12/23 01:23:43;;;;;;;16.50;12.50;;;5.40;71.50;;;;;;5073811;28;20177;-68
2021/12/23 01:26:08;;;;;;;15.65;12.88;;;5.40;71.40;;;;;;5073749;28;20210;-68
2021/12/23 01:28:34;;;;;;;15.10;11.53;;;5.30;71.40;;;;;;5072244;28;20256;-68
2021/12/23 01:31:00;;;;;;;15.73;12.20;;;5.30;71.50;;;;;;5074070;28;20180;-68
2021/12/23 01:33:26;;;;;;;17.73;12.63;;;5.40;71.20;;;;;;5073127;28;20188;-67
2021/12/23 01:35:52;;;;;;;18.43;13.13;;;5.00;71.20;;;;;;5074179;28;20929;-68
2021/12/23 01:38:18;;;;;;;15.27;12.17;;;4.80;73.00;;;;;;5072142;28;20174;-68
2021/12/23 01:40:46;;;;;;;19.77;12.90;;;4.90;74.10;;;;;;5071360;28;20263;-71
2021/12/23 01:43:13;;;;;;;15.00;11.88;;;5.10;73.50;;;;;;5073368;28;20177;-78
2021/12/23 01:45:44;;;;;;;16.92;12.55;;;4.90;73.50;;;;;;5072321;28;20232;-68
2021/12/23 01:48:11;;;;;;;16.90;12.60;;;4.80;74.10;;;;;;5074802;28;20176;-78
2021/12/23 01:50:39;;;;;;;16.92;13.00;;;4.70;75.10;;;;;;5074262;28;20183;-68
2021/12/23 01:53:05;;;;;;;17.48;13.20;;;4.80;75.00;;;;;;5074188;28;20492;-68
2021/12/23 01:55:31;;;;;;;17.60;12.70;;;4.50;74.90;;;;;;5074214;28;20205;-67
2021/12/23 01:57:57;;;;;;;19.53;13.00;;;4.50;76.30;;;;;;5075324;28;20180;-68
2021/12/23 02:00:26;;;;;;;17.30;12.77;;;4.70;77.30;;;;;;5074150;28;20185;-68
2021/12/23 02:02:53;;;;;;;16.50;12.43;;;4.90;77.00;;;;;;5074802;28;20227;-68
2021/12/23 02:05:19;;;;;;;16.35;12.50;;;4.70;77.00;;;;;;5073866;28;20234;-68
2021/12/23 02:07:45;;;;;;;19.60;13.60;;;4.60;77.00;;;;;;5075033;28;20169;-67
2021/12/23 02:10:11;;;;;;;16.37;12.80;;;4.60;78.40;;;;;;5073709;28;20462;-67
2021/12/23 02:12:37;;;;;;;17.50;13.90;;;4.50;78.20;;;;;;5074229;28;20415;-68
2021/12/23 02:15:04;;;;;;;14.63;12.05;;;4.60;78.40;;;;;;5073768;28;20466;-67
2021/12/23 02:17:35;;;;;;;17.10;13.35;;;4.60;77.60;;;;;;5073936;28;20173;-68
2021/12/23 02:20:01;;;;;;;16.00;12.32;;;4.50;77.60;;;;;;5074754;28;20158;-68
2021/12/23 02:22:27;;;;;;;17.10;13.37;;;4.50;78.70;;;;;;5073573;28;20195;-68
2021/12/23 02:24:52;;;;;;;16.93;13.63;;;4.40;78.80;;;;;;5073885;28;20419;-67
2021/12/23 02:27:18;;;;;;;15.50;13.20;;;4.30;79.30;;;;;;5074185;28;20173;-71
2021/12/23 02:29:44;;;;;;;17.80;12.93;;;4.40;79.70;;;;;;5075048;28;20201;-68
2021/12/23 02:32:09;;;;;;;20.30;14.70;;;4.50;79.70;;;;;;5073680;28;20173;-68
2021/12/23 02:34:35;;;;;;;15.73;12.67;;;4.50;79.50;;;;;;5072834;28;20169;-68
2021/12/23 02:37:01;;;;;;;19.20;14.00;;;4.50;79.50;;;;;;5074623;28;20617;-68
2021/12/23 02:39:28;;;;;;;20.67;14.30;;;4.40;80.00;;;;;;5073646;28;20227;-68
2021/12/23 02:41:54;;;;;;;18.75;13.20;;;4.40;80.00;;;;;;5074524;28;20256;-68
2021/12/23 02:44:21;;;;;;;18.52;14.25;;;4.00;80.20;;;;;;5073463;28;20180;-68
2021/12/23 02:46:48;;;;;;;21.60;13.82;;;4.40;80.50;;;;;;5056045;28;20233;-67
2021/12/23 02:49:14;;;;;;;16.02;13.45;;;4.50;82.30;;;;;;5074196;28;20196;-68
2021/12/23 02:51:40;;;;;;;20.23;14.05;;;4.60;80.80;;;;;;5073481;28;20177;-68
2021/12/23 02:54:06;;;;;;;19.27;13.93;;;4.70;80.60;;;;;;5074309;28;20215;-68
2021/12/23 02:56:33;;;;;;;15.70;12.50;;;4.70;80.20;;;;;;5073565;28;20248;-68
2021/12/23 02:58:58;;;;;;;18.33;13.75;;;4.80;80.60;;;;;;5073346;28;20260;-68
2021/12/23 03:01:25;;;;;;;17.60;12.90;;;4.80;80.70;;;;;;5073706;28;20260;-68
2021/12/23 03:03:53;;;;;;;18.45;13.95;;;4.50;80.40;;;;;;5073752;28;20394;-68
2021/12/23 03:06:21;;;;;;;23.27;13.80;;;4.50;81.40;;;;;;5073606;28;20239;-79
2021/12/23 03:08:51;;;;;;;17.67;12.43;;;4.60;81.10;;;;;;5074014;28;20279;-68
2021/12/23 03:11:20;;;;;;;17.70;12.82;;;4.60;80.50;;;;;;5072373;28;20229;-79
2021/12/23 03:13:48;;;;;;;19.33;13.93;;;4.30;81.70;;;;;;5073837;28;20520;-68
2021/12/23 03:16:18;;;;;;;20.35;13.70;;;4.20;82.50;;;;;;5055849;28;20205;-68
2021/12/23 03:18:44;;;;;;;19.13;13.63;;;4.20;83.60;;;;;;5072025;28;20169;-68
2021/12/23 03:21:09;;;;;;;16.73;13.03;;;4.20;84.00;;;;;;5073542;28;20181;-70
2021/12/23 03:23:35;;;;;;;20.27;13.87;;;4.20;84.10;;;;;;5071693;28;20253;-68
2021/12/23 03:26:04;;;;;;;19.15;13.32;;;4.40;84.20;;;;;;5072375;28;20272;-68
2021/12/23 03:28:29;;;;;;;17.52;13.48;;;4.50;83.60;;;;;;5071457;28;20544;-68
2021/12/23 03:30:55;;;;;;;21.23;13.13;;;4.60;83.80;;;;;;5073654;28;20196;-68
2021/12/23 03:33:21;;;;;;;18.87;14.10;;;4.40;82.90;;;;;;5071249;28;20227;-72
2021/12/23 03:35:48;;;;;;;19.60;12.70;;;4.50;83.90;;;;;;5073337;28;20212;-68
2021/12/23 03:38:14;;;;;;;16.80;13.02;;;4.60;83.20;;;;;;5073132;28;20420;-68
2021/12/23 03:40:41;;;;;;;18.02;13.90;;;4.60;83.60;;;;;;5072271;28;20177;-68
2021/12/23 03:43:10;;;;;;;19.67;13.98;;;4.80;83.20;;;;;;5072795;28;20177;-67
2021/12/23 03:45:37;;;;;;;20.63;13.02;;;4.70;82.80;;;;;;5072446;28;20257;-68
2021/12/23 03:48:03;;;;;;;16.92;13.90;;;4.80;82.70;;;;;;5073196;28;20548;-68
2021/12/23 03:50:29;;;;;;;19.08;13.38;;;4.90;82.40;;;;;;5071977;28;20169;-68
2021/12/23 03:52:55;;;;;;;19.27;14.73;;;5.00;82.20;;;;;;5072774;28;20177;-68
2021/12/23 03:55:21;;;;;;;17.00;13.70;;;5.00;82.50;;;;;;5072466;28;20679;-79
2021/12/23 03:57:46;;;;;;;18.30;14.20;;;5.20;82.30;;;;;;5072892;28;20613;-68
2021/12/23 04:00:15;;;;;;;19.17;13.83;;;5.30;81.70;;;;;;5071840;28;20390;-68
2021/12/23 04:02:41;;;;;;;18.83;14.10;;;5.40;81.00;;;;;;5072085;28;20244;-68
2021/12/23 04:05:07;;;;;;;18.03;14.37;;;5.50;81.50;;;;;;5072361;28;20318;-68
2021/12/23 04:07:34;;;;;;;18.92;14.10;;;5.60;81.90;;;;;;5072232;28;20395;-68
2021/12/23 04:10:00;;;;;;;19.48;13.95;;;5.70;81.80;;;;;;5072714;28;20169;-68
2021/12/23 04:12:26;;;;;;;20.00;14.03;;;5.70;82.10;;;;;;5071812;28;20176;-68
2021/12/23 04:14:51;;;;;;;18.57;13.70;;;5.70;80.40;;;;;;5072705;28;20264;-68
2021/12/23 04:17:17;;;;;;;18.43;13.20;;;5.50;79.40;;;;;;5072407;28;20184;-70
2021/12/23 04:19:46;;;;;;;17.30;12.90;;;5.50;80.40;;;;;;5071427;28;20186;-68
2021/12/23 04:22:12;;;;;;;18.92;13.80;;;5.60;80.70;;;;;;5071185;28;20185;-68
2021/12/23 04:24:38;;;;;;;18.88;14.77;;;5.70;81.20;;;;;;5071485;28;20511;-68
2021/12/23 04:27:04;;;;;;;22.10;15.40;;;5.70;81.60;;;;;;5072500;28;20176;-68
2021/12/23 04:29:30;;;;;;;17.55;13.40;;;5.70;81.40;;;;;;5071740;28;20248;-68
2021/12/23 04:31:56;;;;;;;19.83;14.47;;;5.70;81.40;;;;;;5072410;28;20211;-68
2021/12/23 04:34:22;;;;;;;20.23;15.05;;;5.70;81.70;;;;;;5072086;28;20209;-78
2021/12/23 04:36:47;;;;;;;19.40;14.10;;;5.70;81.70;;;;;;5071732;28;20680;-67
2021/12/23 04:39:13;;;;;;;20.53;13.90;;;5.60;81.90;;;;;;5072425;28;20521;-67
2021/12/23 04:41:39;;;;;;;18.73;13.93;;;5.60;81.90;;;;;;5071594;28;20225;-67
2021/12/23 04:44:06;;;;;;;17.10;13.07;;;5.60;81.60;;;;;;5070621;28;20177;-67
2021/12/23 04:46:31;;;;;;;21.90;14.45;;;5.60;81.50;;;;;;5071112;28;20515;-67
2021/12/23 04:48:57;;;;;;;22.30;15.13;;;5.70;81.40;;;;;;5072293;28;20541;-67
2021/12/23 04:51:23;;;;;;;20.23;14.50;;;5.70;81.00;;;;;;5070571;28;20402;-79
2021/12/23 04:53:49;;;;;;;19.30;14.20;;;5.70;81.00;;;;;;5071819;28;20420;-67
2021/12/23 04:56:17;;;;;;;17.57;14.70;;;5.80;80.80;;;;;;5071200;28;20847;-67
2021/12/23 04:58:44;;;;;;;19.20;14.48;;;5.70;80.80;;;;;;5071143;28;20462;-67
2021/12/23 05:01:19;;;;;;;22.77;15.93;;;5.70;80.90;;;;;;5071842;28;20630;-67
2021/12/23 05:03:47;;;;;;;18.80;14.43;;;5.70;81.00;;;;;;5071385;28;20149;-67
2021/12/23 05:06:16;;;;;;;21.15;15.13;;;5.60;81.30;;;;;;5071864;28;20652;-68
2021/12/23 05:08:42;;;;;;;21.30;14.40;;;5.60;81.60;;;;;;5070651;28;20165;-67
2021/12/23 05:11:08;;;;;;;21.63;15.57;;;5.50;81.60;;;;;;5071763;28;20538;-67
2021/12/23 05:13:34;;;;;;;20.37;14.67;;;5.40;81.70;;;;;;5071339;28;20177;-67
2021/12/23 05:15:59;;;;;;;22.00;14.93;;;5.40;82.30;;;;;;5071585;28;20209;-67
2021/12/23 05:18:25;;;;;;;21.33;16.20;;;5.40;82.20;;;;;;5071450;28;20531;-78
2021/12/23 05:20:51;;;;;;;19.83;15.03;;;5.40;82.60;;;;;;5071718;28;20169;-67
2021/12/23 05:23:17;;;;;;;22.93;16.30;;;5.40;82.50;;;;;;5070495;28;20208;-67
2021/12/23 05:25:43;;;;;;;21.77;15.25;;;5.40;82.60;;;;;;5070658;28;20971;-67
2021/12/23 05:28:09;;;;;;;20.00;14.10;;;5.50;82.70;;;;;;5071523;28;20204;-67
2021/12/23 05:30:35;;;;;;;19.80;14.60;;;5.50;82.70;;;;;;5071259;28;20428;-67
2021/12/23 05:33:01;;;;;;;22.73;16.47;;;5.50;82.60;;;;;;5071594;28;20174;-67
2021/12/23 05:35:26;;;;;;;23.30;17.13;;;5.50;82.20;;;;;;5071128;28;20215;-78
2021/12/23 05:37:53;;;;;;;21.00;16.30;;;5.50;82.00;;;;;;5071321;28;20610;-67
2021/12/23 05:40:22;;;;;;;23.55;17.45;;;5.60;82.40;;;;;;5071189;28;20256;-67
2021/12/23 05:42:48;;;;;;;22.20;14.82;;;5.30;82.10;;;;;;5070535;28;21021;-67
2021/12/23 05:45:15;;;;;;;20.33;16.10;;;5.30;82.10;;;;;;5070342;28;20229;-66
2021/12/23 05:47:41;;;;;;;23.50;17.70;;;5.30;82.40;;;;;;5070589;28;20571;-66
2021/12/23 05:50:09;;;;;;;21.20;15.98;;;5.30;82.50;;;;;;5069261;28;20173;-67
2021/12/23 05:52:35;;;;;;;22.38;16.60;;;5.40;82.80;;;;;;5064050;28;20563;-68
2021/12/23 05:55:02;;;;;;;21.42;15.93;;;5.30;82.20;;;;;;5070104;28;20205;-68
2021/12/23 05:57:29;;;;;;;20.75;15.38;;;5.40;83.00;;;;;;5067991;28;20178;-74
2021/12/23 05:59:55;;;;;;;24.60;17.95;;;5.30;83.70;;;;;;5070117;28;20192;-68
2021/12/23 06:02:21;;;;;;;23.90;16.20;;;5.40;82.80;;;;;;5070125;28;20169;-67
2021/12/23 06:04:47;;;;;;;21.23;15.30;;;5.50;82.80;;;;;;5068946;28;20400;-67
2021/12/23 06:07:13;;;;;;;21.70;15.47;;;5.50;82.60;;;;;;5071134;28;20444;-66
2021/12/23 06:09:38;;;;;;;20.33;14.60;;;5.40;82.60;;;;;;5072868;28;20253;-67
2021/12/23 06:12:04;;;;;;;19.93;15.30;;;5.50;82.40;;;;;;5073611;28;20177;-70
2021/12/23 06:14:30;;;;;;;23.02;15.82;;;5.40;82.30;;;;;;5072331;28;20177;-67
2021/12/23 06:16:56;;;;;;;20.77;15.07;;;5.40;82.40;;;;;;5073419;28;20197;-66
2021/12/23 06:19:23;;;;;;;21.37;15.63;;;5.50;82.50;;;;;;5073599;28;20390;-66
2021/12/23 06:21:48;;;;;;;22.60;16.38;;;5.50;82.20;;;;;;5072691;28;20201;-66
2021/12/23 06:24:15;;;;;;;20.17;15.23;;;5.60;82.30;;;;;;5072079;28;20209;-70
2021/12/23 06:26:41;;;;;;;22.67;15.77;;;5.60;82.20;;;;;;5061712;28;20224;-66
2021/12/23 06:29:06;;;;;;;22.67;16.47;;;5.60;82.10;;;;;;5054785;28;20179;-66
2021/12/23 06:31:32;;;;;;;23.33;16.30;;;5.70;82.70;;;;;;5061997;28;20185;-67
2021/12/23 06:33:58;;;;;;;21.20;16.30;;;5.70;82.60;;;;;;5066929;28;20181;-66
2021/12/23 06:36:23;;;;;;;18.80;15.53;;;5.60;82.70;;;;;;5074112;28;20204;-66
2021/12/23 06:38:49;;;;;;;20.67;15.63;;;5.60;83.00;;;;;;5073788;28;20190;-66
2021/12/23 06:41:16;;;;;;;23.30;16.40;;;5.70;82.70;;;;;;5070533;28;20174;-66
2021/12/23 06:43:42;;;;;;;21.92;16.23;;;5.60;83.00;;;;;;5065862;28;20484;-68
2021/12/23 06:46:08;;;;;;;21.53;15.07;;;5.70;83.50;;;;;;5073984;28;20386;-67
2021/12/23 06:48:34;;;;;;;21.33;15.57;;;5.70;84.80;;;;;;5072771;28;20542;-68
2021/12/23 06:51:00;;;;;;;22.73;15.73;;;5.60;85.20;;;;;;5074322;28;20173;-68
2021/12/23 06:53:27;;;;;;;22.85;15.73;;;5.60;85.80;;;;;;5073892;28;20641;-75
2021/12/23 06:55:55;;;;;;;22.77;16.38;;;5.70;83.90;;;;;;5061626;28;20207;-68
2021/12/23 06:58:23;;;;;;;22.13;15.10;;;5.50;83.40;;;;;;5067783;28;20185;-68
2021/12/23 07:00:48;;;;;;;22.95;17.83;;;5.60;84.30;;;;;;5072547;28;20231;-68
2021/12/23 07:03:14;;;;;;;23.90;17.97;;;5.60;84.70;;;;;;5069409;28;20189;-68
2021/12/23 07:05:40;;;;;;;22.43;17.50;;;5.60;85.10;;;;;;5073115;28;20787;-67
2021/12/23 07:08:11;;;;;;;23.90;17.60;;;5.50;84.90;;;;;;5069309;28;20281;-68
2021/12/23 07:10:37;;;;;;;19.92;15.93;;;5.50;83.50;;;;;;5065923;28;20728;-68
2021/12/23 07:13:04;;;;;;;23.80;17.23;;;5.50;83.20;;;;;;5064290;28;20709;-67
2021/12/23 07:15:32;;;;;;;23.15;16.55;;;5.60;83.10;;;;;;5073218;28;20220;-86
2021/12/23 07:18:00;;;;;;;24.83;17.00;;;5.60;82.80;;;;;;5058186;28;20184;-70
2021/12/23 07:20:29;;;;;;;24.90;17.38;;;5.70;82.40;;;;;;5055068;28;20519;-69
2021/12/23 07:22:56;;;;;;;22.53;16.40;;;5.80;82.30;;;;;;5053945;28;20170;-69
2021/12/23 07:25:22;;;;;;;24.00;17.13;;;5.80;82.90;;;;;;5071037;28;20457;-69
2021/12/23 07:27:48;;;;;;;26.70;18.00;;;5.80;83.30;;;;;;5072722;28;20174;-69
2021/12/23 07:30:18;;;;;;;23.63;16.67;;;5.80;83.40;;;;;;5052707;28;20547;-69
2021/12/23 07:32:44;;;;;;;23.77;17.23;;;6.20;83.90;;;;;;5053323;28;20744;-69
2021/12/23 07:35:10;;;;;;;25.83;17.43;;;5.90;83.50;;;;;;5053279;28;20209;-69
2021/12/23 07:37:37;;;;;;;22.83;17.80;;;5.90;82.90;;;;;;5038672;28;20174;-70
2021/12/23 07:40:05;;;;;;;25.77;17.40;;;5.90;82.40;;;;;;5073848;28;20518;-69
2021/12/23 07:42:32;;;;;;;27.20;19.35;;;5.90;82.30;;;;;;5073139;28;20408;-74
2021/12/23 07:44:59;;;;;;;27.77;20.17;;;6.00;81.70;;;;;;5072611;28;20229;-69
2021/12/23 07:47:25;;;;;;;28.42;19.80;;;6.00;81.40;;;;;;5071393;28;20227;-70
2021/12/23 07:49:50;;;;;;;24.77;17.92;;;6.00;81.80;;;;;;5071338;28;20771;-69
2021/12/23 07:52:16;;;;;;;25.97;19.07;;;6.10;82.20;;;;;;5072946;28;20270;-69
2021/12/23 07:54:42;;;;;;;28.47;19.37;;;5.90;82.60;;;;;;5071801;28;20209;-70
2021/12/23 07:57:08;;;;;;;23.20;17.80;;;5.90;83.50;;;;;;5071199;28;20476;-69
2021/12/23 07:59:33;;;;;;;23.43;17.07;;;5.90;84.20;;;;;;5053520;28;20235;-71
2021/12/23 08:01:59;;;;;;;25.40;19.07;;;5.90;85.00;;;;;;5072761;28;20174;-69
2021/12/23 08:04:25;;;;;;;25.55;19.20;;;5.90;84.70;;;;;;5071223;28;20422;-73
2021/12/23 08:06:57;;;;;;;23.43;17.30;;;6.00;86.30;;;;;;5071974;28;20244;-73
2021/12/23 08:09:25;;;;;;;25.60;18.07;;;6.60;89.60;;;;;;5072541;28;20415;-73
2021/12/23 08:11:51;;;;;;;21.30;17.60;;;7.40;88.40;;;;;;5071704;28;20956;-73
2021/12/23 08:14:17;;;;;;;25.73;17.60;;;8.00;86.20;;;;;;5071882;28;20411;-73
2021/12/23 08:16:43;;;;;;;792.80;467.83;;;8.80;83.20;;;;;;5071613;28;20470;-73
2021/12/23 08:19:10;;;;;;;226.17;129.17;;;9.20;80.70;;;;;;5071717;28;20419;-73
2021/12/23 08:21:37;;;;;;;28.60;21.60;;;9.70;78.40;;;;;;5071523;28;20416;-74
2021/12/23 08:24:04;;;;;;;24.23;17.70;;;10.20;79.20;;;;;;5072503;28;20434;-74
2021/12/23 08:26:38;;;;;;;21.73;17.20;;;10.70;78.30;;;;;;5070739;28;20423;-74
2021/12/23 08:29:04;;;;;;;20.50;16.83;;;11.10;75.60;;;;;;5071876;28;20415;-74
2021/12/23 08:31:30;;;;;;;165.67;127.90;;;11.50;73.10;;;;;;5070935;28;20422;-74
2021/12/23 08:33:56;;;;;;;79.80;56.17;;;11.80;71.10;;;;;;5071260;28;20940;-73
2021/12/23 08:36:21;;;;;;;471.33;304.73;;;12.10;69.90;;;;;;5071061;28;20216;-74
2021/12/23 08:38:47;;;;;;;29.33;21.33;;;12.40;68.20;;;;;;5071467;28;20182;-74
2021/12/23 08:41:13;;;;;;;22.50;18.20;;;12.60;63.40;;;;;;5071401;28;20201;-73
2021/12/23 08:43:38;;;;;;;25.10;19.43;;;12.70;61.40;;;;;;5071034;28;20182;-75
2021/12/23 08:46:04;;;;;;;23.03;18.17;;;12.90;60.00;;;;;;5070112;28;20224;-72
2021/12/23 08:48:30;;;;;;;21.40;18.23;;;12.90;59.40;;;;;;5071941;28;20176;-71
2021/12/23 08:50:56;;;;;;;23.33;17.80;;;13.00;59.00;;;;;;5069888;28;20182;-70
2021/12/23 08:53:21;;;;;;;19.30;16.60;;;13.00;58.30;;;;;;5071925;28;20181;-71
2021/12/23 08:55:47;;;;;;;24.93;19.83;;;13.00;58.60;;;;;;5070142;28;20524;-71
2021/12/23 08:58:13;;;;;;;22.70;18.67;;;13.00;58.60;;;;;;5069289;28;20430;-71
2021/12/23 09:00:40;;;;;;;21.23;17.10;;;13.00;59.30;;;;;;5065956;28;20436;-71
2021/12/23 09:03:08;;;;;;;18.73;15.73;;;13.20;59.80;;;;;;5071648;28;20432;-72
2021/12/23 09:05:36;;;;;;;20.13;16.37;;;13.30;58.30;;;;;;5071312;28;20427;-73
2021/12/23 09:08:02;;;;;;;20.80;16.63;;;13.40;58.20;;;;;;5071600;28;20416;-73
2021/12/23 09:10:28;;;;;;;22.83;17.73;;;13.50;57.60;;;;;;5070097;28;20429;-70
2021/12/23 09:12:54;;;;;;;19.60;16.97;;;13.60;57.00;;;;;;5069541;28;20421;-71
2021/12/23 09:15:20;;;;;;;22.03;18.30;;;13.60;56.50;;;;;;5060236;28;20457;-71
2021/12/23 09:17:48;;;;;;;20.47;17.73;;;13.60;57.00;;;;;;5070729;28;20207;-71
2021/12/23 09:20:16;;;;;;;19.10;16.37;;;13.70;57.20;;;;;;5071302;28;20830;-69
2021/12/23 09:22:42;;;;;;;22.40;17.20;;;13.80;57.30;;;;;;5069529;28;20432;-72
2021/12/23 09:25:18;;;;;;;17.70;15.80;;;13.80;56.80;;;;;;5070454;28;20428;-75
2021/12/23 09:28:14;;;;;;;19.27;16.97;;;13.80;55.60;;;;;;5068789;28;20458;-71
2021/12/23 09:33:16;;;;;;;19.10;15.53;;;13.80;54.70;;;;;;5070734;28;20428;-72
2021/12/23 09:35:42;;;;;;;21.17;16.60;;;13.80;54.90;;;;;;5070295;28;20468;-72
2021/12/23 09:38:09;;;;;;;17.90;15.90;;;13.70;55.20;;;;;;5071535;28;20463;-71
2021/12/23 09:40:36;;;;;;;18.73;16.20;;;13.80;55.70;;;;;;5070625;28;20931;-71
2021/12/23 09:43:06;;;;;;;21.00;16.70;;;14.00;56.10;;;;;;5074645;28;20448;-69
2021/12/23 09:45:33;;;;;;;19.42;16.25;;;14.10;55.10;;;;;;5069286;28;20440;-68
2021/12/23 09:48:01;;;;;;;1376.50;697.10;;;14.10;55.00;;;;;;5069204;28;20771;-68
2021/12/23 09:50:34;;;;;;;96.93;61.10;;;13.80;53.90;;;;;;5074040;28;20429;-68
2021/12/23 09:53:02;;;;;;;26.50;20.43;;;13.30;53.60;;;;;;5056872;28;20413;-67
2021/12/23 09:55:28;;;;;;;22.50;17.80;;;12.80;53.00;;;;;;5074627;28;20796;-68
2021/12/23 09:57:56;;;;;;;23.73;18.13;;;12.30;53.10;;;;;;5069114;28;20447;-68
2021/12/23 10:00:24;;;;;;;19.40;15.77;;;11.80;53.50;;;;;;5072869;28;20430;-68
2021/12/23 10:02:51;;;;;;;23.77;16.30;;;11.30;54.10;;;;;;5073771;28;20409;-68
2021/12/23 10:05:27;;;;;;;17.87;15.43;;;11.00;55.40;;;;;;5074455;28;20915;-68
2021/12/23 10:07:55;;;;;;;24.77;16.10;;;10.60;56.20;;;;;;5066305;28;20426;-68
2021/12/23 10:10:28;;;;;;;20.87;14.77;;;10.30;57.10;;;;;;5072121;28;20902;-70
2021/12/23 10:32:18;;;;;;;17.87;14.13;;;9.00;63.00;;;;;;5069595;28;20431;-68
2021/12/23 10:37:23;;;;;;;20.33;14.77;;;8.80;63.40;;;;;;5073979;28;20544;-68
2021/12/23 10:39:50;;;;;;;19.93;14.60;;;8.70;64.20;;;;;;5072120;28;20227;-68
2021/12/23 10:42:24;;;;;;;16.67;13.87;;;8.70;64.60;;;;;;5074114;28;20404;-68
2021/12/23 10:44:59;;;;;;;17.67;14.07;;;8.60;65.00;;;;;;5069865;28;20465;-68
2021/12/23 10:48:05;;;;;;;18.97;13.73;;;8.60;65.50;;;;;;5068465;28;20435;-68
2021/12/23 10:50:39;;;;;;;14.90;12.20;;;8.60;66.00;;;;;;5073187;28;20411;-68
2021/12/23 10:59:10;;;;;;;17.23;13.30;;;8.50;66.00;;;;;;5073034;28;20466;-67
2021/12/23 11:01:59;;;;;;;600.43;345.83;;;8.40;66.40;;;;;;5074326;28;20404;-67
2021/12/23 11:04:25;;;;;;;239.53;123.70;;;8.40;67.20;;;;;;5073468;28;20930;-68
2021/12/23 11:07:22;;;;;;;26.83;19.03;;;8.50;68.20;;;;;;5071633;28;20415;-68
2021/12/23 11:10:35;;;;;;;18.57;13.50;;;8.50;67.70;;;;;;5072438;28;20185;-66
2021/12/23 11:36:20;;;;;;;16.50;12.70;;;8.60;69.40;;;;;;5071417;28;20447;-66
2021/12/23 11:41:32;;;;;;;19.20;13.27;;;8.60;69.80;;;;;;5068615;28;20524;-67
2021/12/23 11:44:01;;;;;;;16.70;12.70;;;8.70;70.20;;;;;;5070787;28;20564;-66
2021/12/23 11:46:37;;;;;;;14.27;11.40;;;8.70;70.50;;;;;;5057803;28;20479;-66
2021/12/23 11:49:07;;;;;;;18.77;12.37;;;8.70;70.70;;;;;;5051990;28;20506;-66
2021/12/23 11:51:46;;;;;;;17.33;12.20;;;8.80;71.30;;;;;;5052801;28;20489;-66
2021/12/23 11:54:15;;;;;;;16.10;12.43;;;8.80;70.70;;;;;;5065615;28;20423;-66
2021/12/23 11:56:50;;;;;;;15.47;12.47;;;8.80;70.70;;;;;;5071765;28;20969;-66
2021/12/23 11:59:17;;;;;;;16.97;13.27;;;8.80;71.10;;;;;;5068238;28;20484;-66
2021/12/23 12:01:49;;;;;;;16.50;13.17;;;8.70;70.80;;;;;;5063996;28;20783;-71
2021/12/23 12:04:37;;;;;;;18.37;12.53;;;8.80;70.90;;;;;;5071771;28;20772;-66
2021/12/23 12:07:19;;;;;;;13.60;11.53;;;8.80;70.40;;;;;;5059705;28;20554;-67
2021/12/23 12:09:55;;;;;;;15.17;12.20;;;8.80;70.40;;;;;;5046982;28;20424;-71
2021/12/23 12:12:21;;;;;;;15.70;12.13;;;8.90;71.00;;;;;;5057053;28;20423;-66
2021/12/23 12:14:47;;;;;;;14.87;12.67;;;8.90;70.80;;;;;;5066561;28;20501;-69
2021/12/23 12:17:25;;;;;;;14.93;12.80;;;8.90;71.00;;;;;;5070761;28;20217;-66
2021/12/23 12:20:03;;;;;;;14.80;12.17;;;8.90;71.10;;;;;;5070902;28;20451;-67
2021/12/23 12:22:49;;;;;;;18.20;12.80;;;8.90;71.10;;;;;;5072496;28;20411;-67
2021/12/23 12:25:24;;;;;;;13.20;11.30;;;8.80;71.10;;;;;;5055417;28;20423;-67
2021/12/23 12:28:18;;;;;;;13.90;11.33;;;8.80;71.80;;;;;;5056255;28;20825;-67
2021/12/23 12:31:06;;;;;;;14.17;11.30;;;8.90;73.00;;;;;;5069319;28;20846;-66
2021/12/23 12:33:37;;;;;;;14.07;11.93;;;8.90;73.00;;;;;;5060156;28;20451;-67
2021/12/23 12:36:05;;;;;;;16.77;12.80;;;8.90;74.00;;;;;;5057310;28;20555;-66
2021/12/23 12:38:40;;;;;;;16.07;11.47;;;8.80;74.00;;;;;;5058182;28;20461;-68
2021/12/23 12:41:09;;;;;;;18.00;11.90;;;8.80;74.60;;;;;;5068562;28;20442;-68
2021/12/23 12:43:46;;;;;;;16.93;11.50;;;8.80;74.60;;;;;;5070409;28;20435;-66
2021/12/23 12:49:21;;;;;;;52.83;31.47;;;8.80;75.10;;;;;;5070838;28;20435;-66
2021/12/23 12:51:47;;;;;;;19.00;12.87;;;8.80;75.10;;;;;;5070769;28;20771;-71
2021/12/23 12:54:30;;;;;;;19.30;14.10;;;8.60;76.00;;;;;;5071248;28;20423;-66
2021/12/23 12:57:03;;;;;;;17.43;13.77;;;8.60;76.00;;;;;;5071095;28;20450;-67
2021/12/23 12:59:34;;;;;;;16.20;13.13;;;8.70;77.00;;;;;;5058573;28;20489;-67
2021/12/23 13:02:00;;;;;;;18.70;12.13;;;8.60;77.00;;;;;;5068586;28;20910;-67
2021/12/23 13:04:34;;;;;;;15.43;12.53;;;8.70;77.00;;;;;;5071248;28;20431;-67
2021/12/23 13:07:22;;;;;;;15.27;11.50;;;8.60;76.60;;;;;;5053159;28;20430;-67
2021/12/23 13:09:56;;;;;;;17.23;11.73;;;8.60;77.10;;;;;;5061291;28;20411;-71
2021/12/23 13:12:34;;;;;;;18.07;13.10;;;8.60;76.90;;;;;;5072173;28;20470;-66
2021/12/23 13:15:16;;;;;;;14.13;11.90;;;8.60;77.20;;;;;;5069234;28;20870;-67
2021/12/23 13:18:08;;;;;;;878.27;445.10;;;8.60;77.60;;;;;;5044387;28;20416;-67
2021/12/23 13:20:42;;;;;;;44.00;24.33;;;8.60;78.00;;;;;;5061682;28;20818;-68
2021/12/23 13:23:18;;;;;;;14.50;12.03;;;8.70;78.70;;;;;;5061976;28;20553;-68
2021/12/23 13:25:55;;;;;;;17.47;12.80;;;8.70;78.20;;;;;;5053786;28;20427;-67
2021/12/23 13:28:29;;;;;;;17.67;12.33;;;8.60;78.60;;;;;;5066741;28;20427;-67
2021/12/23 13:30:56;;;;;;;15.60;12.20;;;8.70;78.60;;;;;;5068950;28;20424;-67
2021/12/23 13:33:22;;;;;;;18.07;13.40;;;8.70;78.10;;;;;;5072575;28;20426;-66
2021/12/23 13:35:48;;;;;;;17.60;13.40;;;8.80;78.40;;;;;;5072521;28;20869;-71
2021/12/23 13:38:32;;;;;;;20.13;14.20;;;8.80;78.10;;;;;;5073336;28;20474;-67
2021/12/23 13:41:28;;;;;;;19.40;13.30;;;8.70;78.20;;;;;;5071178;28;20442;-67
2021/12/23 13:44:14;;;;;;;16.63;12.70;;;8.70;79.10;;;;;;5070654;28;20466;-68
2021/12/23 13:46:42;;;;;;;17.80;12.47;;;8.80;80.30;;;;;;5041648;28;20537;-67
2021/12/23 13:49:08;;;;;;;14.77;11.70;;;8.80;81.00;;;;;;5071516;28;20423;-66